createdAt,value
2023-03-26T00:02:55.181Z,1000.8
2023-03-26T00:18:29.206Z,1000.8
2023-03-26T00:34:03.282Z,1000.9
2023-03-26T00:49:37.301Z,1000.9
2023-03-26T01:05:11.364Z,1000.8
2023-03-26T01:20:45.368Z,1000.7
2023-03-26T01:36:19.370Z,1000.6
2023-03-26T01:51:53.347Z,1000.4
2023-03-26T02:07:27.385Z,1000.4
2023-03-26T02:23:01.476Z,1000.4
2023-03-26T02:38:35.487Z,1000.3
2023-03-26T02:54:09.718Z,1000.5
2023-03-26T03:09:43.742Z,1000.3
2023-03-26T03:25:17.801Z,1000.1
2023-03-26T03:40:51.870Z,1000.2
2023-03-26T03:56:25.969Z,1000.2
2023-03-26T04:12:00.155Z,1000.2
2023-03-26T04:27:34.120Z,1000.2
2023-03-26T04:43:08.121Z,1000.3
2023-03-26T04:58:42.135Z,1000.2
2023-03-26T05:14:16.140Z,1000.1
2023-03-26T05:29:50.096Z,1000.1
2023-03-26T05:45:24.183Z,999.9
2023-03-26T06:00:58.349Z,999.8
2023-03-26T06:16:32.479Z,999.7
2023-03-26T06:32:16.619Z,999.4
2023-03-26T06:47:53.302Z,999.4
2023-03-26T07:03:27.404Z,999.2
2023-03-26T07:19:01.617Z,999
2023-03-26T07:34:35.682Z,998.9
2023-03-26T07:50:09.738Z,998.6
2023-03-26T08:05:43.751Z,998.5
2023-03-26T08:21:18.034Z,998.2
2023-03-26T08:36:52.074Z,998
2023-03-26T08:52:26.120Z,997.8
2023-03-26T09:08:00.177Z,997.6
2023-03-26T09:23:38.586Z,997.4
2023-03-26T09:39:12.644Z,997.3
2023-03-26T09:54:46.758Z,997.2
2023-03-26T10:10:20.895Z,997
2023-03-26T10:25:54.953Z,996.8
2023-03-26T10:41:28.993Z,996.7
2023-03-26T10:57:03.173Z,996.7
2023-03-26T11:12:38.713Z,996.9
2023-03-26T11:28:13.975Z,996.9
2023-03-26T11:44:38.303Z,996.8
2023-03-26T12:00:12.397Z,996.9
2023-03-26T12:15:46.435Z,996.7
2023-03-26T12:31:20.701Z,996.7
2023-03-26T12:47:55.998Z,996.6
2023-03-26T13:03:35.648Z,996.6
2023-03-26T13:19:09.791Z,996.5
2023-03-26T13:34:43.789Z,996.3
2023-03-26T13:50:18.099Z,996.1
2023-03-26T14:05:52.159Z,996
2023-03-26T14:21:26.204Z,995.9
2023-03-26T14:37:00.237Z,995.7
2023-03-26T14:52:36.565Z,995.7
2023-03-26T15:08:10.580Z,995.5
2023-03-26T15:23:44.601Z,995.3
2023-03-26T15:39:18.605Z,995.2
2023-03-26T15:55:08.576Z,995.1
2023-03-26T16:10:42.556Z,995
2023-03-26T16:26:16.818Z,995
2023-03-26T16:41:50.854Z,995
2023-03-26T16:57:24.858Z,995.1
2023-03-26T17:12:58.873Z,995.2
2023-03-26T17:28:32.877Z,995.3
2023-03-26T17:44:07.296Z,995.3
2023-03-26T17:59:41.392Z,995.4
2023-03-26T18:15:15.413Z,995.4
2023-03-26T18:30:53.247Z,995.6
2023-03-26T18:46:27.804Z,995.6
2023-03-26T19:02:01.890Z,995.6
2023-03-26T19:17:36.740Z,995.5
2023-03-26T19:33:12.475Z,995.5
2023-03-26T19:48:47.293Z,995.5
2023-03-26T20:04:21.572Z,995.4
2023-03-26T20:19:55.565Z,995.5
2023-03-26T20:35:35.729Z,995.5
2023-03-26T20:51:11.936Z,995.6
2023-03-26T21:06:45.948Z,995.7
2023-03-26T21:22:26.929Z,996
2023-03-26T21:38:01.001Z,996.3
2023-03-26T21:53:34.937Z,996.8
2023-03-26T22:09:08.886Z,996.8
2023-03-26T22:24:44.916Z,997.3
2023-03-26T22:40:19.118Z,997.9
2023-03-26T22:55:53.095Z,998
2023-03-26T23:11:27.066Z,998.4
2023-03-26T23:27:00.978Z,998.8
2023-03-26T23:42:35.036Z,999.1
2023-03-26T23:58:09.251Z,999.3
